Time;durP1;ratioP1;P1;durP2;ratioP2;P2;SDS_P1;SDS_P2;PMS_P1;PMS_P2;Temp;Humidity;BMP_temperature;BMP_pressure;BME280_temperature;BME280_humidity;BME280_pressure;Samples;Min_cycle;Max_cycle;Signal;HPM_P1;HPM_P2
2024/02/19 00:00:30;;;;;;;11.38;4.60;;;10.60;99.90;;;;;;5034840;28;20577;-69
2024/02/19 00:03:02;;;;;;;12.05;4.70;;;10.50;99.90;;;;;;5036069;28;20057;-69
2024/02/19 00:05:30;;;;;;;13.88;5.22;;;10.50;99.90;;;;;;5036031;28;20069;-69
2024/02/19 00:07:59;;;;;;;13.32;4.70;;;10.40;99.90;;;;;;5036089;28;20052;-69
2024/02/19 00:10:26;;;;;;;12.35;5.13;;;10.40;99.90;;;;;;5035690;28;20099;-70
2024/02/19 00:12:53;;;;;;;13.02;5.10;;;10.40;99.90;;;;;;5034618;28;20045;-68
2024/02/19 00:15:20;;;;;;;15.57;5.97;;;10.40;99.90;;;;;;5035670;28;20057;-68
2024/02/19 00:17:46;;;;;;;14.73;5.07;;;10.30;99.90;;;;;;5035970;28;20130;-70
2024/02/19 00:20:13;;;;;;;16.48;5.70;;;10.30;99.90;;;;;;5035739;28;20048;-70
2024/02/19 00:22:40;;;;;;;12.10;5.28;;;10.30;99.90;;;;;;5035653;28;20085;-70
2024/02/19 00:25:07;;;;;;;11.73;5.65;;;10.20;99.90;;;;;;5035330;28;20116;-68
2024/02/19 00:27:34;;;;;;;10.40;5.05;;;10.20;99.90;;;;;;5035698;28;20044;-68
2024/02/19 00:30:00;;;;;;;15.30;4.85;;;10.20;99.90;;;;;;5035802;28;20524;-68
2024/02/19 00:32:29;;;;;;;15.13;5.90;;;10.10;99.90;;;;;;5035651;28;20045;-68
2024/02/19 00:34:56;;;;;;;11.95;5.25;;;10.10;99.90;;;;;;5035188;28;20749;-68
2024/02/19 00:37:23;;;;;;;15.90;5.65;;;10.10;99.90;;;;;;5035462;28;20100;-69
2024/02/19 00:39:50;;;;;;;15.10;5.60;;;10.10;99.90;;;;;;5035488;28;20107;-68
2024/02/19 00:42:17;;;;;;;14.43;5.65;;;10.10;99.90;;;;;;5035204;28;20443;-69
2024/02/19 00:44:43;;;;;;;16.90;6.00;;;10.00;99.90;;;;;;5035265;28;20474;-68
2024/02/19 00:47:11;;;;;;;16.95;6.72;;;9.90;99.90;;;;;;5034257;28;20072;-69
2024/02/19 00:49:38;;;;;;;16.10;5.72;;;9.90;99.90;;;;;;5035570;28;20140;-70
2024/02/19 00:52:04;;;;;;;14.45;6.25;;;9.90;99.90;;;;;;5035231;28;20048;-68
2024/02/19 00:54:31;;;;;;;20.13;6.50;;;9.80;99.90;;;;;;5035193;28;20076;-69
2024/02/19 00:56:58;;;;;;;15.13;6.18;;;9.80;99.90;;;;;;5035226;28;20049;-69
2024/02/19 00:59:25;;;;;;;16.10;5.63;;;9.70;99.90;;;;;;5035022;28;20069;-69
2024/02/19 01:01:52;;;;;;;15.48;6.05;;;9.70;99.90;;;;;;5034836;28;20052;-68
2024/02/19 01:04:19;;;;;;;12.50;5.88;;;9.60;99.90;;;;;;5025961;28;20057;-69
2024/02/19 01:06:46;;;;;;;11.75;5.65;;;9.60;99.90;;;;;;5024634;28;20116;-69
2024/02/19 01:09:13;;;;;;;15.00;6.15;;;9.60;99.90;;;;;;5023381;28;20041;-69
2024/02/19 01:11:40;;;;;;;12.20;6.50;;;9.60;99.90;;;;;;5031862;28;20505;-69
2024/02/19 01:14:07;;;;;;;14.80;6.30;;;9.50;99.90;;;;;;5029931;28;20121;-69
2024/02/19 01:16:34;;;;;;;14.73;5.82;;;9.50;99.90;;;;;;5052415;28;20091;-69
2024/02/19 01:19:01;;;;;;;15.50;5.95;;;9.40;99.90;;;;;;5034941;28;20107;-70
2024/02/19 01:21:27;;;;;;;17.83;5.85;;;9.50;99.90;;;;;;5047601;28;20116;-69
2024/02/19 01:23:54;;;;;;;13.20;5.47;;;9.40;99.90;;;;;;5054439;28;20413;-69
2024/02/19 01:26:21;;;;;;;15.85;5.68;;;9.40;99.90;;;;;;5054602;28;20040;-69
2024/02/19 01:28:48;;;;;;;17.23;6.03;;;9.30;99.90;;;;;;5054731;28;20044;-69
2024/02/19 01:31:14;;;;;;;13.32;5.60;;;9.30;99.90;;;;;;5054578;28;20098;-69
2024/02/19 01:33:42;;;;;;;12.10;6.15;;;9.30;99.90;;;;;;5054451;28;20037;-69
2024/02/19 01:36:09;;;;;;;16.13;5.72;;;9.30;99.90;;;;;;5054371;28;20037;-70
2024/02/19 01:38:36;;;;;;;15.70;5.97;;;9.20;99.90;;;;;;5054590;28;20047;-69
2024/02/19 01:41:03;;;;;;;14.38;5.05;;;9.20;99.90;;;;;;5050286;28;20091;-70
2024/02/19 01:43:30;;;;;;;15.15;5.93;;;9.20;99.90;;;;;;5034291;28;20038;-69
2024/02/19 01:45:56;;;;;;;15.60;5.63;;;9.20;99.90;;;;;;5034214;28;20033;-69
2024/02/19 01:48:23;;;;;;;14.43;5.72;;;9.10;99.90;;;;;;5034252;28;20044;-66
2024/02/19 01:50:50;;;;;;;12.43;5.90;;;9.10;99.90;;;;;;5045312;28;20036;-66
2024/02/19 01:53:17;;;;;;;18.58;5.65;;;9.10;99.90;;;;;;5053935;28;20061;-66
2024/02/19 01:55:44;;;;;;;14.65;5.10;;;9.10;99.90;;;;;;5053698;28;20045;-66
2024/02/19 01:58:10;;;;;;;15.77;5.00;;;9.00;99.90;;;;;;5054115;28;20535;-66
2024/02/19 02:00:46;;;;;;;12.32;5.22;;;9.00;99.90;;;;;;5049739;28;20125;-66
2024/02/19 02:03:13;;;;;;;15.48;5.72;;;9.00;99.90;;;;;;5037437;28;20116;-66
2024/02/19 02:05:39;;;;;;;13.20;6.05;;;9.00;99.90;;;;;;5033742;28;20046;-67
2024/02/19 02:08:06;;;;;;;13.07;5.28;;;8.90;99.90;;;;;;5033811;28;20455;-66
2024/02/19 02:10:33;;;;;;;16.45;5.70;;;8.90;99.90;;;;;;5033655;28;20053;-66
2024/02/19 02:13:00;;;;;;;12.13;5.30;;;8.90;99.90;;;;;;5033633;28;20045;-66
2024/02/19 02:15:26;;;;;;;13.73;5.03;;;8.90;99.90;;;;;;5052822;28;20124;-66
2024/02/19 02:17:53;;;;;;;11.18;5.20;;;8.80;99.90;;;;;;5050729;28;20124;-66
2024/02/19 02:20:20;;;;;;;13.43;5.70;;;8.80;99.90;;;;;;5053595;28;20032;-66
2024/02/19 02:22:47;;;;;;;11.48;5.13;;;8.80;99.90;;;;;;5053473;28;20037;-66
2024/02/19 02:25:14;;;;;;;17.77;5.32;;;8.70;99.90;;;;;;5053234;28;20040;-66
2024/02/19 02:27:41;;;;;;;14.93;5.30;;;8.80;99.90;;;;;;5037809;28;20044;-67
2024/02/19 02:30:08;;;;;;;12.35;4.45;;;8.70;99.90;;;;;;5033226;28;20493;-66
2024/02/19 02:32:35;;;;;;;11.23;4.57;;;8.70;99.90;;;;;;5033578;28;20049;-66
2024/02/19 02:35:02;;;;;;;10.32;4.45;;;8.70;99.90;;;;;;5039914;28;20398;-67
2024/02/19 02:37:30;;;;;;;12.00;4.43;;;8.70;99.90;;;;;;5053273;28;20052;-67
2024/02/19 02:39:57;;;;;;;14.32;4.35;;;8.70;99.90;;;;;;5053576;28;20057;-66
2024/02/19 02:42:24;;;;;;;10.75;4.60;;;8.70;99.90;;;;;;5053387;28;20060;-67
2024/02/19 02:44:50;;;;;;;12.20;4.90;;;8.70;99.90;;;;;;5051778;28;20420;-66
2024/02/19 02:47:17;;;;;;;11.85;4.50;;;8.70;99.90;;;;;;5052687;28;20077;-67
2024/02/19 02:49:44;;;;;;;13.73;4.05;;;8.70;99.90;;;;;;5033385;28;20044;-67
2024/02/19 02:52:11;;;;;;;14.30;4.55;;;8.60;99.90;;;;;;5033234;28;20056;-67
2024/02/19 02:54:38;;;;;;;11.20;4.40;;;8.60;99.90;;;;;;5032885;28;20059;-66
2024/02/19 02:57:04;;;;;;;14.95;4.38;;;8.60;99.90;;;;;;5033353;28;20542;-67
2024/02/19 02:59:31;;;;;;;13.38;4.43;;;8.60;99.90;;;;;;5033051;28;20041;-66
2024/02/19 03:01:58;;;;;;;11.55;4.55;;;8.60;99.90;;;;;;5033299;28;20471;-67
2024/02/19 03:04:25;;;;;;;16.67;5.45;;;8.60;99.90;;;;;;5034504;28;20045;-66
2024/02/19 03:06:52;;;;;;;12.43;4.43;;;8.60;99.90;;;;;;5052966;28;20061;-67
2024/02/19 03:09:19;;;;;;;11.35;4.70;;;8.60;99.90;;;;;;5052914;28;20087;-67
2024/02/19 03:11:46;;;;;;;9.60;4.15;;;8.60;99.90;;;;;;5047453;28;20080;-66
2024/02/19 03:14:13;;;;;;;13.25;4.60;;;8.60;99.90;;;;;;5044843;28;20503;-66
2024/02/19 03:16:40;;;;;;;13.38;4.60;;;8.50;99.90;;;;;;5032852;28;20079;-66
2024/02/19 03:19:07;;;;;;;14.00;4.68;;;8.50;99.90;;;;;;5033220;28;20061;-67
2024/02/19 03:21:34;;;;;;;7.88;4.20;;;8.60;99.90;;;;;;5032978;28;20475;-67
2024/02/19 03:24:01;;;;;;;12.82;4.63;;;8.50;99.90;;;;;;5032877;28;20049;-66
2024/02/19 03:26:28;;;;;;;13.68;4.03;;;8.60;99.90;;;;;;5032956;28;20466;-66
2024/02/19 03:28:57;;;;;;;11.63;4.50;;;8.50;99.90;;;;;;5033247;28;20068;-66
2024/02/19 03:31:24;;;;;;;12.35;3.97;;;8.50;99.90;;;;;;5033170;28;20038;-66
2024/02/19 03:33:51;;;;;;;9.93;4.22;;;8.50;99.90;;;;;;5032875;28;20050;-67
2024/02/19 03:36:18;;;;;;;9.48;4.40;;;8.40;99.90;;;;;;5047995;28;20041;-66
2024/02/19 03:38:45;;;;;;;11.77;4.55;;;8.40;99.90;;;;;;5052898;28;20099;-67
2024/02/19 03:41:11;;;;;;;9.07;4.13;;;8.30;99.90;;;;;;5052717;28;20048;-67
2024/02/19 03:43:38;;;;;;;14.82;4.60;;;8.30;99.90;;;;;;5049994;28;20063;-67
2024/02/19 03:46:05;;;;;;;12.73;4.47;;;8.30;99.90;;;;;;5052637;28;20045;-67
2024/02/19 03:48:32;;;;;;;10.57;4.07;;;8.30;99.90;;;;;;5056434;28;20402;-67
2024/02/19 03:50:59;;;;;;;12.43;4.38;;;8.20;99.90;;;;;;5044039;28;20075;-67
2024/02/19 03:53:25;;;;;;;10.68;4.07;;;8.30;99.90;;;;;;5036429;28;20068;-67
2024/02/19 03:55:52;;;;;;;12.48;4.55;;;8.20;99.90;;;;;;5036160;28;20037;-67
2024/02/19 03:58:19;;;;;;;9.18;4.43;;;8.20;99.90;;;;;;5036122;28;20104;-66
2024/02/19 04:00:46;;;;;;;14.50;3.95;;;8.20;99.90;;;;;;5036486;28;20041;-66
2024/02/19 04:03:13;;;;;;;9.70;4.38;;;8.20;99.90;;;;;;5036035;28;20052;-66
2024/02/19 04:05:39;;;;;;;13.95;4.65;;;8.20;99.90;;;;;;5035897;28;20045;-66
2024/02/19 04:08:06;;;;;;;12.27;4.43;;;8.10;99.90;;;;;;5036089;28;20115;-67
2024/02/19 04:10:35;;;;;;;11.27;3.58;;;8.10;99.90;;;;;;5036090;28;20490;-66
2024/02/19 04:13:02;;;;;;;10.70;4.40;;;8.10;99.90;;;;;;5035747;28;20049;-67
2024/02/19 04:15:29;;;;;;;13.57;4.18;;;8.10;99.90;;;;;;5054262;28;20502;-66
2024/02/19 04:17:56;;;;;;;10.75;3.80;;;8.00;99.90;;;;;;5050694;28;20037;-66
2024/02/19 04:20:23;;;;;;;8.70;3.70;;;8.10;99.90;;;;;;5038420;28;20490;-67
2024/02/19 04:22:49;;;;;;;10.05;3.53;;;8.00;99.90;;;;;;5053669;28;20052;-66
2024/02/19 04:25:16;;;;;;;9.65;4.05;;;8.00;99.90;;;;;;5055728;28;20048;-66
2024/02/19 04:27:44;;;;;;;9.70;3.58;;;8.00;99.90;;;;;;5055897;28;20128;-68
2024/02/19 04:30:10;;;;;;;11.88;3.72;;;8.00;99.90;;;;;;5055682;28;20045;-67
2024/02/19 04:32:37;;;;;;;13.30;3.45;;;8.00;99.90;;;;;;5055486;28;20433;-66
2024/02/19 04:35:04;;;;;;;14.18;3.88;;;8.00;99.90;;;;;;5052169;28;20504;-66
2024/02/19 04:37:31;;;;;;;12.18;3.83;;;7.90;99.90;;;;;;5035445;28;20052;-66
2024/02/19 04:39:58;;;;;;;8.02;3.42;;;7.90;99.90;;;;;;5035723;28;20125;-67
2024/02/19 04:42:25;;;;;;;11.80;3.75;;;7.90;99.90;;;;;;5035320;28;20039;-66
2024/02/19 04:44:51;;;;;;;11.27;3.80;;;7.90;99.90;;;;;;5035233;28;20049;-67
2024/02/19 04:47:18;;;;;;;8.45;4.38;;;7.90;99.90;;;;;;5035402;28;20175;-66
2024/02/19 04:49:45;;;;;;;9.73;3.70;;;7.90;99.90;;;;;;5035583;28;20053;-67
2024/02/19 04:52:12;;;;;;;11.18;4.20;;;7.90;99.90;;;;;;5055159;28;20114;-67
2024/02/19 04:54:38;;;;;;;10.18;4.05;;;7.90;99.90;;;;;;5055033;28;20470;-66
2024/02/19 04:57:05;;;;;;;9.32;3.78;;;7.80;99.90;;;;;;5055161;28;20041;-67
2024/02/19 04:59:32;;;;;;;9.95;4.10;;;7.80;99.90;;;;;;5054164;28;20099;-66
2024/02/19 05:01:59;;;;;;;10.15;4.05;;;7.80;99.90;;;;;;5054739;28;20068;-67
2024/02/19 05:04:27;;;;;;;7.60;3.60;;;7.80;99.90;;;;;;5054830;28;20044;-66
2024/02/19 05:06:53;;;;;;;12.50;4.03;;;7.80;99.90;;;;;;5037605;28;20034;-66
2024/02/19 05:09:20;;;;;;;10.50;3.78;;;7.80;99.90;;;;;;5035122;28;20045;-66
2024/02/19 05:11:47;;;;;;;11.02;3.83;;;7.90;99.90;;;;;;5034854;28;20065;-66
2024/02/19 05:14:14;;;;;;;7.65;3.75;;;7.90;99.90;;;;;;5034812;28;20049;-66
2024/02/19 05:16:40;;;;;;;8.82;4.40;;;7.90;99.90;;;;;;5034843;28;20045;-67
2024/02/19 05:19:09;;;;;;;10.93;4.80;;;7.90;99.90;;;;;;5034763;28;20041;-67
2024/02/19 05:21:36;;;;;;;9.25;4.72;;;8.00;99.90;;;;;;5053683;28;20083;-66
2024/02/19 05:24:03;;;;;;;9.43;5.35;;;8.10;99.90;;;;;;5054434;28;20041;-66
2024/02/19 05:26:30;;;;;;;8.05;4.93;;;8.10;99.90;;;;;;5054555;28;20474;-67
2024/02/19 05:28:57;;;;;;;7.32;4.90;;;8.10;99.90;;;;;;5054545;28;20040;-67
2024/02/19 05:31:23;;;;;;;9.60;5.32;;;8.20;99.90;;;;;;5054766;28;20417;-67
2024/02/19 05:33:50;;;;;;;10.13;5.50;;;8.20;99.90;;;;;;5054661;28;20043;-67
2024/02/19 05:36:17;;;;;;;10.77;5.63;;;8.30;99.90;;;;;;5054525;28;20529;-67
2024/02/19 05:38:44;;;;;;;10.13;5.45;;;8.30;99.90;;;;;;5054224;28;20053;-67
2024/02/19 05:41:10;;;;;;;11.15;6.05;;;8.40;99.90;;;;;;5054332;28;20045;-66
2024/02/19 05:43:37;;;;;;;9.07;5.60;;;8.40;99.90;;;;;;5053944;28;20047;-66
2024/02/19 05:46:04;;;;;;;13.55;5.85;;;8.40;99.90;;;;;;5054104;28;20037;-67
2024/02/19 05:48:31;;;;;;;10.00;6.05;;;8.50;99.90;;;;;;5053938;28;20044;-67
2024/02/19 05:50:58;;;;;;;9.68;5.75;;;8.50;99.90;;;;;;5046283;28;20048;-67
2024/02/19 05:53:25;;;;;;;12.43;5.63;;;8.60;99.90;;;;;;5034161;28;20132;-67
2024/02/19 05:55:52;;;;;;;12.07;6.18;;;8.60;99.90;;;;;;5033808;28;20108;-67
2024/02/19 05:58:18;;;;;;;12.27;6.25;;;8.60;99.90;;;;;;5033924;28;20072;-67
2024/02/19 06:00:45;;;;;;;14.57;6.13;;;8.60;99.90;;;;;;5033960;28;20033;-67
2024/02/19 06:03:12;;;;;;;10.55;5.80;;;8.60;99.90;;;;;;5034002;28;20068;-67
2024/02/19 06:05:40;;;;;;;14.60;6.53;;;8.60;99.90;;;;;;5033996;28;20038;-67
2024/02/19 06:08:07;;;;;;;12.43;6.38;;;8.60;99.90;;;;;;5034087;28;20069;-67
2024/02/19 06:10:33;;;;;;;15.60;5.93;;;8.60;99.90;;;;;;5033495;28;20052;-67
2024/02/19 06:13:00;;;;;;;13.68;6.72;;;8.60;99.90;;;;;;5043756;28;20048;-67
2024/02/19 06:15:27;;;;;;;11.23;6.22;;;8.70;99.90;;;;;;5053342;28;20517;-67
2024/02/19 06:17:54;;;;;;;12.63;5.43;;;8.70;99.90;;;;;;5053569;28;20040;-67
2024/02/19 06:20:21;;;;;;;11.73;6.03;;;8.80;99.90;;;;;;5052369;28;20136;-67
2024/02/19 06:22:47;;;;;;;13.77;5.80;;;8.80;99.90;;;;;;5033799;28;20116;-67
2024/02/19 06:25:14;;;;;;;12.77;5.35;;;8.90;99.90;;;;;;5033734;28;20046;-67
2024/02/19 06:27:41;;;;;;;13.32;5.07;;;9.00;99.90;;;;;;5033530;28;20495;-67
2024/02/19 06:30:08;;;;;;;12.35;5.47;;;9.00;99.90;;;;;;5033652;28;20529;-67
2024/02/19 06:32:35;;;;;;;12.23;4.93;;;9.00;99.90;;;;;;5033481;28;20052;-67
2024/02/19 06:35:02;;;;;;;14.35;5.38;;;9.10;99.90;;;;;;5033175;28;20087;-67
2024/02/19 06:37:29;;;;;;;15.80;5.50;;;9.10;99.90;;;;;;5050404;28;20485;-67
2024/02/19 06:39:56;;;;;;;12.02;5.05;;;9.10;99.90;;;;;;5053199;28;20523;-67
2024/02/19 06:42:23;;;;;;;11.95;4.53;;;9.20;99.90;;;;;;5053401;28;20060;-67
2024/02/19 06:44:50;;;;;;;11.75;4.35;;;9.20;99.90;;;;;;5053066;28;20510;-67
2024/02/19 06:47:17;;;;;;;12.88;4.10;;;9.30;99.90;;;;;;5053159;28;20049;-67
2024/02/19 06:49:44;;;;;;;13.23;3.67;;;9.30;99.90;;;;;;5053462;28;20041;-67
2024/02/19 06:52:11;;;;;;;10.38;3.67;;;9.30;99.90;;;;;;5037789;28;20121;-67
2024/02/19 06:54:38;;;;;;;11.68;3.60;;;9.20;99.90;;;;;;5033204;28;20041;-67
2024/02/19 06:57:05;;;;;;;13.07;3.80;;;9.20;99.90;;;;;;5033128;28;20046;-66
2024/02/19 06:59:31;;;;;;;12.15;3.50;;;9.20;99.90;;;;;;5033130;28;20072;-67
2024/02/19 07:01:58;;;;;;;12.32;3.78;;;9.20;99.90;;;;;;5033423;28;20117;-67
2024/02/19 07:04:25;;;;;;;10.38;2.92;;;9.20;99.90;;;;;;5033155;28;20076;-67
2024/02/19 07:06:52;;;;;;;15.63;3.70;;;9.20;99.90;;;;;;5033009;28;20038;-62
2024/02/19 07:09:19;;;;;;;12.18;3.67;;;9.20;99.90;;;;;;5033321;28;20517;-62
2024/02/19 07:11:45;;;;;;;16.60;3.97;;;9.20;99.90;;;;;;5032984;28;20479;-61
2024/02/19 07:14:12;;;;;;;11.45;2.97;;;9.20;99.90;;;;;;5050922;28;20060;-61
2024/02/19 07:16:39;;;;;;;12.23;3.20;;;9.20;99.90;;;;;;5053282;28;20041;-61
2024/02/19 07:19:07;;;;;;;11.32;2.95;;;9.20;99.90;;;;;;5052934;28;20053;-62
2024/02/19 07:21:34;;;;;;;8.13;3.20;;;9.20;99.90;;;;;;5044293;28;20084;-62
2024/02/19 07:24:01;;;;;;;9.77;3.00;;;9.20;99.90;;;;;;5035886;28;20047;-62
2024/02/19 07:26:28;;;;;;;11.30;3.15;;;9.20;99.90;;;;;;5037107;28;20072;-62
2024/02/19 07:28:54;;;;;;;10.85;2.83;;;9.20;99.90;;;;;;5051160;28;20045;-61
2024/02/19 07:31:21;;;;;;;15.98;3.10;;;9.20;99.90;;;;;;5056995;28;20104;-62
2024/02/19 07:33:49;;;;;;;9.68;2.85;;;9.10;99.90;;;;;;5057020;28;20528;-62
2024/02/19 07:36:16;;;;;;;13.98;3.72;;;9.10;99.90;;;;;;5056672;28;20099;-62
2024/02/19 07:38:43;;;;;;;12.32;3.10;;;9.10;99.90;;;;;;5056795;28;20123;-62
2024/02/19 07:41:10;;;;;;;8.18;2.60;;;9.10;99.90;;;;;;5054468;28;20048;-61
2024/02/19 07:43:37;;;;;;;11.68;2.80;;;9.00;99.90;;;;;;5037946;28;20037;-62
2024/02/19 07:46:03;;;;;;;11.45;2.78;;;9.10;99.90;;;;;;5033333;28;20049;-62
2024/02/19 07:48:30;;;;;;;12.75;2.78;;;9.10;99.90;;;;;;5027170;28;20045;-62
2024/02/19 07:50:57;;;;;;;10.90;2.42;;;9.10;99.90;;;;;;5025385;28;20042;-62
2024/02/19 07:53:24;;;;;;;7.90;2.13;;;9.10;99.90;;;;;;5025950;28;20037;-62
2024/02/19 07:55:51;;;;;;;11.77;2.38;;;9.10;99.90;;;;;;5027056;28;20045;-61
2024/02/19 07:58:20;;;;;;;12.52;2.83;;;9.10;99.90;;;;;;5025232;28;20038;-61
2024/02/19 08:00:47;;;;;;;9.27;2.40;;;9.10;99.90;;;;;;5025361;28;20037;-62
2024/02/19 08:03:14;;;;;;;13.23;2.25;;;9.10;99.90;;;;;;5026888;28;20366;-61
2024/02/19 08:05:41;;;;;;;10.50;2.47;;;9.20;99.90;;;;;;5021686;28;20045;-61
2024/02/19 08:08:07;;;;;;;8.52;2.05;;;9.20;99.90;;;;;;5016553;28;20045;-60
2024/02/19 08:10:35;;;;;;;12.05;2.33;;;9.20;99.90;;;;;;5016384;28;20046;-59
2024/02/19 08:13:03;;;;;;;8.60;2.05;;;9.30;99.90;;;;;;5016566;28;20449;-60
2024/02/19 08:15:30;;;;;;;10.98;2.30;;;9.30;99.90;;;;;;5016148;28;20050;-61
2024/02/19 08:17:57;;;;;;;9.48;2.08;;;9.40;99.90;;;;;;5025421;28;20036;-63
2024/02/19 08:20:24;;;;;;;11.57;2.50;;;9.50;99.90;;;;;;5025053;28;20040;-63
2024/02/19 08:22:52;;;;;;;10.80;2.10;;;9.50;99.90;;;;;;5026756;28;20042;-63
2024/02/19 08:25:18;;;;;;;8.70;2.42;;;9.60;99.90;;;;;;5024951;28;20052;-63
2024/02/19 08:27:45;;;;;;;13.30;2.60;;;9.60;99.90;;;;;;5024708;28;20125;-63
2024/02/19 08:30:12;;;;;;;10.00;2.40;;;9.60;99.90;;;;;;5035459;28;20486;-63
2024/02/19 08:32:39;;;;;;;13.57;2.50;;;9.70;99.90;;;;;;5035296;28;20056;-63
2024/02/19 08:35:05;;;;;;;13.50;2.17;;;9.70;99.90;;;;;;5034988;28;20159;-70
2024/02/19 08:37:32;;;;;;;9.65;2.38;;;9.80;99.90;;;;;;5035622;28;20057;-70
2024/02/19 08:39:59;;;;;;;10.10;2.25;;;9.80;99.90;;;;;;5035840;28;20087;-70
2024/02/19 08:42:26;;;;;;;13.88;2.25;;;9.90;99.90;;;;;;5035877;28;20068;-70
2024/02/19 08:44:53;;;;;;;17.45;2.50;;;9.90;99.90;;;;;;5035086;28;20069;-70
2024/02/19 08:47:20;;;;;;;13.65;2.60;;;9.90;99.90;;;;;;5035466;28;20056;-70
2024/02/19 08:49:47;;;;;;;12.98;2.20;;;9.90;99.90;;;;;;5035576;28;20049;-70
2024/02/19 08:52:14;;;;;;;11.52;2.60;;;9.90;99.90;;;;;;5035708;28;20053;-70
2024/02/19 08:54:41;;;;;;;10.32;2.17;;;9.90;99.90;;;;;;5035571;28;20110;-70
2024/02/19 08:57:08;;;;;;;14.77;2.85;;;10.00;99.90;;;;;;5035189;28;20112;-70
2024/02/19 08:59:34;;;;;;;14.90;2.47;;;10.00;99.90;;;;;;5035267;28;20041;-70
2024/02/19 09:02:01;;;;;;;13.65;2.53;;;10.00;99.90;;;;;;5035154;28;20125;-70
2024/02/19 09:04:29;;;;;;;15.60;2.88;;;10.00;99.90;;;;;;5035346;28;20092;-68
2024/02/19 09:06:56;;;;;;;10.95;2.40;;;10.00;99.90;;;;;;5035185;28;20136;-69
2024/02/19 09:09:23;;;;;;;13.55;2.80;;;10.00;99.90;;;;;;5035540;28;20053;-69
2024/02/19 09:11:50;;;;;;;17.17;3.00;;;10.10;99.90;;;;;;5034969;28;20053;-69
2024/02/19 09:14:17;;;;;;;12.18;2.53;;;10.10;99.90;;;;;;5034848;28;20058;-69
2024/02/19 09:16:43;;;;;;;12.77;2.47;;;10.10;99.90;;;;;;5034846;28;20037;-69
2024/02/19 09:19:10;;;;;;;17.13;3.03;;;10.10;99.90;;;;;;5035120;28;20038;-69
2024/02/19 09:21:37;;;;;;;14.77;2.55;;;10.20;99.90;;;;;;5034852;28;20457;-70
2024/02/19 09:24:04;;;;;;;15.27;2.95;;;10.10;99.90;;;;;;5035064;28;20068;-70
2024/02/19 09:26:31;;;;;;;13.90;2.47;;;10.10;99.90;;;;;;5034725;28;20045;-70
2024/02/19 09:28:58;;;;;;;13.52;2.50;;;10.10;99.90;;;;;;5034765;28;20397;-69
2024/02/19 09:31:26;;;;;;;15.98;3.35;;;10.20;99.90;;;;;;5033524;28;20053;-63
2024/02/19 09:33:53;;;;;;;13.23;2.95;;;10.20;99.90;;;;;;5034993;28;20041;-63
2024/02/19 09:36:21;;;;;;;13.57;3.17;;;10.30;99.90;;;;;;5034227;28;20529;-63
2024/02/19 09:38:48;;;;;;;18.40;3.38;;;10.30;99.90;;;;;;5034546;28;20393;-63
2024/02/19 09:41:15;;;;;;;15.80;3.00;;;10.20;99.90;;;;;;5034286;28;20065;-63
2024/02/19 09:43:42;;;;;;;19.65;4.10;;;10.20;99.90;;;;;;5034522;28;20048;-63
2024/02/19 09:46:09;;;;;;;17.92;3.25;;;10.20;99.90;;;;;;5034203;28;20128;-63
2024/02/19 09:48:36;;;;;;;20.05;4.07;;;10.20;99.90;;;;;;5034542;28;20116;-63
2024/02/19 09:51:03;;;;;;;16.23;3.35;;;10.20;99.90;;;;;;5033133;28;20540;-61
2024/02/19 09:53:32;;;;;;;19.42;3.20;;;10.20;99.90;;;;;;5033571;28;20400;-62
2024/02/19 09:55:59;;;;;;;18.35;2.67;;;10.20;99.90;;;;;;5033073;28;20048;-62
2024/02/19 09:58:26;;;;;;;15.18;3.58;;;10.30;99.90;;;;;;5033014;28;20042;-62
2024/02/19 10:00:53;;;;;;;17.20;3.40;;;10.40;99.90;;;;;;5033679;28;20038;-63
2024/02/19 10:03:20;;;;;;;15.40;2.58;;;10.40;99.90;;;;;;5033656;28;20107;-62
2024/02/19 10:05:47;;;;;;;13.43;2.72;;;10.50;99.90;;;;;;5030278;28;20033;-62
2024/02/19 10:08:15;;;;;;;13.43;3.10;;;10.50;99.90;;;;;;5049038;28;20397;-62
2024/02/19 10:10:42;;;;;;;17.05;3.20;;;10.60;99.90;;;;;;5052942;28;20102;-62
2024/02/19 10:13:13;;;;;;;14.48;2.80;;;10.70;99.90;;;;;;5053165;28;20052;-63
2024/02/19 10:15:39;;;;;;;21.52;3.10;;;10.70;99.90;;;;;;5013218;28;20046;-63
2024/02/19 10:18:06;;;;;;;16.73;2.72;;;10.80;99.90;;;;;;5027501;28;20037;-62
2024/02/19 10:20:33;;;;;;;15.40;2.53;;;10.90;99.90;;;;;;5033160;28;20037;-66
2024/02/19 10:23:00;;;;;;;15.27;2.95;;;11.00;99.90;;;;;;5033299;28;20125;-67
2024/02/19 10:25:27;;;;;;;11.77;2.78;;;11.00;99.90;;;;;;5032862;28;20033;-67
2024/02/19 10:27:54;;;;;;;15.18;2.60;;;11.00;99.90;;;;;;5033294;28;20041;-66
2024/02/19 10:30:20;;;;;;;18.73;3.17;;;11.00;99.90;;;;;;5031954;28;20499;-67
2024/02/19 10:32:47;;;;;;;15.35;2.80;;;10.90;99.90;;;;;;5033047;28;20112;-67
2024/02/19 10:35:15;;;;;;;14.73;2.58;;;10.90;99.90;;;;;;5032850;28;20072;-63
2024/02/19 10:37:42;;;;;;;9.75;2.67;;;10.90;99.90;;;;;;5015100;28;20544;-63
2024/02/19 10:40:09;;;;;;;19.20;2.60;;;10.80;99.90;;;;;;5033064;28;20038;-63
2024/02/19 10:42:37;;;;;;;13.88;3.13;;;10.80;99.90;;;;;;5033088;28;20395;-63
2024/02/19 10:45:04;;;;;;;10.57;3.25;;;10.80;99.90;;;;;;5032952;28;20056;-67
2024/02/19 10:47:31;;;;;;;15.13;2.70;;;10.80;99.90;;;;;;5032958;28;20041;-68
2024/02/19 10:49:58;;;;;;;14.60;2.90;;;10.80;99.90;;;;;;5032978;28;20055;-67
2024/02/19 10:52:26;;;;;;;14.23;2.60;;;10.80;99.90;;;;;;5033090;28;20371;-68
2024/02/19 10:54:53;;;;;;;14.13;2.90;;;10.70;99.90;;;;;;5032963;28;20434;-66
2024/02/19 10:57:35;;;;;;;15.95;2.90;;;10.70;99.90;;;;;;5034496;28;20044;-65
2024/02/19 11:00:03;;;;;;;15.38;2.58;;;10.70;99.90;;;;;;5037106;28;20463;-66
2024/02/19 11:02:30;;;;;;;17.25;3.60;;;10.60;99.90;;;;;;5036547;28;20056;-66
2024/02/19 11:04:57;;;;;;;14.35;2.75;;;10.60;99.90;;;;;;5037055;28;20397;-66
2024/02/19 11:07:24;;;;;;;13.13;2.55;;;10.60;99.90;;;;;;5035475;28;20395;-65
2024/02/19 11:09:50;;;;;;;16.63;3.58;;;10.60;99.90;;;;;;5036907;28;20041;-65
2024/02/19 11:12:18;;;;;;;13.13;2.60;;;10.60;99.90;;;;;;5036813;28;20099;-65
2024/02/19 11:14:45;;;;;;;14.75;2.63;;;10.70;99.90;;;;;;5036349;28;20065;-66
2024/02/19 11:17:12;;;;;;;14.85;2.72;;;10.70;99.90;;;;;;5036102;28;20047;-65
2024/02/19 11:19:39;;;;;;;20.52;3.45;;;10.80;99.90;;;;;;5036680;28;20061;-66
2024/02/19 11:22:11;;;;;;;11.80;3.08;;;10.90;99.90;;;;;;5036736;28;20486;-66
2024/02/19 11:24:38;;;;;;;17.23;3.30;;;10.90;99.90;;;;;;5036667;28;20535;-66
2024/02/19 11:27:05;;;;;;;11.50;3.38;;;11.00;99.90;;;;;;5036535;28;20054;-65
2024/02/19 11:29:33;;;;;;;12.27;3.13;;;11.10;99.90;;;;;;5035973;28;20053;-65
2024/02/19 11:32:17;;;;;;;16.00;2.53;;;11.00;99.90;;;;;;5036822;28;20047;-66
2024/02/19 11:34:47;;;;;;;14.25;2.53;;;10.80;99.90;;;;;;5036873;28;20489;-67
2024/02/19 11:37:14;;;;;;;8.38;2.30;;;10.70;99.90;;;;;;5036711;28;20038;-67
2024/02/19 11:39:42;;;;;;;14.77;2.83;;;10.60;99.90;;;;;;5035784;28;20041;-66
2024/02/19 11:42:11;;;;;;;9.20;2.22;;;10.60;99.90;;;;;;5035968;28;20072;-66
2024/02/19 11:44:39;;;;;;;9.90;2.47;;;10.60;99.90;;;;;;5036276;28;20041;-66
2024/02/19 11:47:07;;;;;;;12.32;3.22;;;10.70;99.90;;;;;;5036533;28;20069;-66
2024/02/19 11:49:34;;;;;;;12.35;2.90;;;10.70;99.90;;;;;;5036180;28;20457;-66
2024/02/19 11:52:03;;;;;;;17.23;3.35;;;10.60;99.90;;;;;;5036291;28;20087;-66
2024/02/19 11:54:38;;;;;;;11.88;2.80;;;10.70;99.90;;;;;;5036094;28;20127;-66
2024/02/19 11:57:07;;;;;;;18.95;3.33;;;10.80;99.90;;;;;;5036332;28;20128;-67
2024/02/19 11:59:35;;;;;;;12.27;2.70;;;10.80;99.90;;;;;;5036392;28;20065;-66
2024/02/19 12:02:02;;;;;;;14.63;2.80;;;10.90;99.90;;;;;;5036518;28;20033;-66
2024/02/19 12:04:30;;;;;;;15.25;2.83;;;10.90;99.90;;;;;;5035347;28;20083;-66
2024/02/19 12:06:57;;;;;;;10.68;2.58;;;11.00;99.90;;;;;;5036539;28;20581;-66
2024/02/19 12:09:24;;;;;;;8.52;2.50;;;11.00;99.90;;;;;;5036128;28;20046;-66
2024/02/19 12:11:51;;;;;;;11.10;2.38;;;11.10;99.90;;;;;;5036416;28;20047;-66
2024/02/19 12:14:20;;;;;;;8.50;2.13;;;11.20;99.90;;;;;;5035689;28;20053;-66
2024/02/19 12:16:46;;;;;;;6.47;1.88;;;11.30;99.90;;;;;;5035966;28;20099;-66
2024/02/19 12:19:13;;;;;;;5.78;1.50;;;11.40;99.90;;;;;;5036394;28;20073;-66
2024/02/19 12:21:42;;;;;;;9.10;1.80;;;11.50;99.90;;;;;;5035978;28;20041;-66
2024/02/19 12:24:09;;;;;;;5.45;1.42;;;11.60;99.90;;;;;;5036342;28;20045;-66
2024/02/19 12:26:37;;;;;;;10.13;1.88;;;11.60;99.90;;;;;;5035975;28;20038;-66
2024/02/19 12:29:04;;;;;;;7.00;1.77;;;11.70;99.90;;;;;;5034615;28;20065;-66
2024/02/19 12:31:30;;;;;;;6.90;1.67;;;11.70;99.90;;;;;;5035821;28;20120;-66
2024/02/19 12:33:57;;;;;;;10.07;2.03;;;11.90;99.90;;;;;;5035848;28;20065;-66
2024/02/19 12:36:24;;;;;;;9.73;2.28;;;11.90;99.90;;;;;;5035857;28;20130;-66
2024/02/19 12:38:52;;;;;;;9.02;1.92;;;12.00;99.90;;;;;;5036023;28;20442;-66
2024/02/19 12:41:19;;;;;;;8.82;2.10;;;12.00;99.90;;;;;;5035857;28;20029;-66
2024/02/19 12:43:46;;;;;;;9.60;2.00;;;12.10;99.90;;;;;;5035470;28;20050;-66